Terminal Aerodrome Forecast
Issued by NWS

Home | Current Version | Previous Version | Text Only | Print | Product List | Glossary On
Versions: 1 2 3 4 5 6 7 8 9 10 11 12 13 14
000
FTUS44 KEPZ 160500
TAFTCS
TAF
KTCS 160520Z 1606/1706 26005KT P6SM FEW050 OVC100
     FM161100 VRB04KT P6SM -SHRA SCT010 BKN025 OVC080
     FM161400 04005KT 5SM SHRA BKN020 OVC050
      TEMPO 1616/1620 3SM +SHRA BKN010
     FM162000 03011KT P6SM -SHRA VCTS SCT010 BKN030CB OVC070
     FM170200 VRB04KT P6SM VCSH SCT015 BKN030=

USA.gov is the U.S. government's official web portal to all federal, state and local government web resources and services.